sensor_id;sensor_type;location;lat;lon;timestamp;pressure;altitude;pressure_sealevel;temperature;humidity
7836;BME280;3963;42.658;23.298;2023-10-19T00:02:23;45043.88;;;-144.44;100.00
7836;BME280;3963;42.658;23.298;2023-10-19T00:04:50;45053.75;;;-144.44;100.00
7836;BME280;3963;42.658;23.298;2023-10-19T00:07:18;45073.50;;;-144.44;100.00
7836;BME280;3963;42.658;23.298;2023-10-19T00:09:44;45065.59;;;-144.44;100.00
7836;BME280;3963;42.658;23.298;2023-10-19T00:12:13;45111.06;;;-144.44;100.00
7836;BME280;3963;42.658;23.298;2023-10-19T00:14:41;45105.13;;;-144.44;100.00
7836;BME280;3963;42.658;23.298;2023-10-19T00:17:07;45105.13;;;-144.44;100.00
7836;BME280;3963;42.658;23.298;2023-10-19T00:19:36;45087.34;;;-144.44;100.00
7836;BME280;3963;42.658;23.298;2023-10-19T00:22:05;45081.41;;;-144.44;100.00
7836;BME280;3963;42.658;23.298;2023-10-19T00:24:42;45089.31;;;-144.44;100.00
7836;BME280;3963;42.658;23.298;2023-10-19T00:27:10;45107.09;;;-144.44;100.00
7836;BME280;3963;42.658;23.298;2023-10-19T00:29:42;45144.66;;;-144.44;100.00
7836;BME280;3963;42.658;23.298;2023-10-19T00:32:15;45150.59;;;-144.44;100.00
7836;BME280;3963;42.658;23.298;2023-10-19T00:34:44;45146.63;;;-144.44;100.00
7836;BME280;3963;42.658;23.298;2023-10-19T00:37:17;45148.59;;;-144.44;100.00
7836;BME280;3963;42.658;23.298;2023-10-19T00:39:54;45164.41;;;-144.44;100.00
7836;BME280;3963;42.658;23.298;2023-10-19T00:42:22;45140.69;;;-144.44;100.00
7836;BME280;3963;42.658;23.298;2023-10-19T00:44:55;45207.91;;;-144.44;100.00
7836;BME280;3963;42.658;23.298;2023-10-19T00:47:30;45277.06;;;-144.44;100.00
7836;BME280;3963;42.658;23.298;2023-10-19T00:50:06;45279.03;;;-144.44;100.00
7836;BME280;3963;42.658;23.298;2023-10-19T00:52:37;45251.38;;;-144.44;100.00
7836;BME280;3963;42.658;23.298;2023-10-19T00:55:10;45211.84;;;-144.44;100.00
7836;BME280;3963;42.658;23.298;2023-10-19T00:57:39;45097.22;;;-144.44;100.00
7836;BME280;3963;42.658;23.298;2023-10-19T01:00:08;45140.69;;;-144.44;100.00
7836;BME280;3963;42.658;23.298;2023-10-19T01:02:38;45055.72;;;-144.44;100.00
7836;BME280;3963;42.658;23.298;2023-10-19T01:05:09;45032.00;;;-144.44;100.00
7836;BME280;3963;42.658;23.298;2023-10-19T01:07:39;45034.00;;;-144.44;100.00
7836;BME280;3963;42.658;23.298;2023-10-19T01:10:08;45045.84;;;-144.44;100.00
7836;BME280;3963;42.658;23.298;2023-10-19T01:12:38;45073.50;;;-144.44;100.00
7836;BME280;3963;42.658;23.298;2023-10-19T01:15:09;45115.00;;;-144.44;100.00
7836;BME280;3963;42.658;23.298;2023-10-19T01:17:40;45170.34;;;-144.44;100.00
7836;BME280;3963;42.658;23.298;2023-10-19T01:20:11;45150.59;;;-144.44;100.00
7836;BME280;3963;42.658;23.298;2023-10-19T01:22:51;45117.00;;;-144.44;100.00
7836;BME280;3963;42.658;23.298;2023-10-19T01:25:31;45081.41;;;-144.44;100.00
7836;BME280;3963;42.658;23.298;2023-10-19T01:28:06;45071.53;;;-144.44;100.00
7836;BME280;3963;42.658;23.298;2023-10-19T01:30:33;45095.25;;;-144.44;100.00
7836;BME280;3963;42.658;23.298;2023-10-19T01:33:01;45049.81;;;-144.44;100.00
7836;BME280;3963;42.658;23.298;2023-10-19T01:35:29;45035.97;;;-144.44;100.00
7836;BME280;3963;42.658;23.298;2023-10-19T01:38:18;45057.69;;;-144.44;100.00
7836;BME280;3963;42.658;23.298;2023-10-19T01:40:44;45085.38;;;-144.44;100.00
7836;BME280;3963;42.658;23.298;2023-10-19T01:43:14;45118.97;;;-144.44;100.00
7836;BME280;3963;42.658;23.298;2023-10-19T01:45:47;45117.00;;;-144.44;100.00
7836;BME280;3963;42.658;23.298;2023-10-19T01:48:19;45156.50;;;-144.44;100.00
7836;BME280;3963;42.658;23.298;2023-10-19T01:50:49;45124.91;;;-144.44;100.00
7836;BME280;3963;42.658;23.298;2023-10-19T01:53:18;45148.59;;;-144.44;100.00
7836;BME280;3963;42.658;23.298;2023-10-19T01:55:46;45122.91;;;-144.44;100.00
7836;BME280;3963;42.658;23.298;2023-10-19T01:58:22;45184.19;;;-144.44;100.00
7836;BME280;3963;42.658;23.298;2023-10-19T02:00:50;45235.56;;;-144.44;100.00
7836;BME280;3963;42.658;23.298;2023-10-19T02:03:19;45186.16;;;-144.44;100.00
7836;BME280;3963;42.658;23.298;2023-10-19T02:05:47;45186.16;;;-144.44;100.00
7836;BME280;3963;42.658;23.298;2023-10-19T02:08:15;45215.81;;;-144.44;100.00
7836;BME280;3963;42.658;23.298;2023-10-19T02:10:47;45211.84;;;-144.44;100.00
7836;BME280;3963;42.658;23.298;2023-10-19T02:13:14;45207.91;;;-144.44;100.00
7836;BME280;3963;42.658;23.298;2023-10-19T02:15:42;45172.31;;;-144.44;100.00
7836;BME280;3963;42.658;23.298;2023-10-19T02:18:09;45162.44;;;-144.44;100.00
7836;BME280;3963;42.658;23.298;2023-10-19T02:20:35;45140.69;;;-144.44;100.00
7836;BME280;3963;42.658;23.298;2023-10-19T02:23:05;45107.09;;;-144.44;100.00
7836;BME280;3963;42.658;23.298;2023-10-19T02:25:32;45085.38;;;-144.44;100.00
7836;BME280;3963;42.658;23.298;2023-10-19T02:28:04;45109.09;;;-144.44;100.00
7836;BME280;3963;42.658;23.298;2023-10-19T02:30:32;45113.03;;;-144.44;100.00
7836;BME280;3963;42.658;23.298;2023-10-19T02:32:59;45089.31;;;-144.44;100.00
7836;BME280;3963;42.658;23.298;2023-10-19T02:35:25;45130.81;;;-144.44;100.00
7836;BME280;3963;42.658;23.298;2023-10-19T02:37:53;45142.69;;;-144.44;100.00
7836;BME280;3963;42.658;23.298;2023-10-19T02:40:20;45162.44;;;-144.44;100.00
7836;BME280;3963;42.658;23.298;2023-10-19T02:42:48;45117.00;;;-144.44;100.00
7836;BME280;3963;42.658;23.298;2023-10-19T02:45:20;45140.69;;;-144.44;100.00
7836;BME280;3963;42.658;23.298;2023-10-19T02:47:46;45170.34;;;-144.44;100.00
7836;BME280;3963;42.658;23.298;2023-10-19T02:50:13;45132.78;;;-144.44;100.00
7836;BME280;3963;42.658;23.298;2023-10-19T02:52:42;45192.09;;;-144.44;100.00
7836;BME280;3963;42.658;23.298;2023-10-19T02:55:09;45188.13;;;-144.44;100.00
7836;BME280;3963;42.658;23.298;2023-10-19T02:57:36;45251.38;;;-144.44;100.00
7836;BME280;3963;42.658;23.298;2023-10-19T03:00:05;45249.41;;;-144.44;100.00
7836;BME280;3963;42.658;23.298;2023-10-19T03:02:38;45261.25;;;-144.44;100.00
7836;BME280;3963;42.658;23.298;2023-10-19T03:05:05;45281.00;;;-144.44;100.00
7836;BME280;3963;42.658;23.298;2023-10-19T03:07:39;45292.88;;;-144.44;100.00
7836;BME280;3963;42.658;23.298;2023-10-19T03:10:07;45290.91;;;-144.44;100.00
7836;BME280;3963;42.658;23.298;2023-10-19T03:12:39;45255.31;;;-144.44;100.00
7836;BME280;3963;42.658;23.298;2023-10-19T03:15:07;45213.81;;;-144.44;100.00
7836;BME280;3963;42.658;23.298;2023-10-19T03:17:33;45148.59;;;-144.44;100.00
7836;BME280;3963;42.658;23.298;2023-10-19T03:20:03;45152.56;;;-144.44;100.00
7836;BME280;3963;42.658;23.298;2023-10-19T03:22:31;45182.19;;;-144.44;100.00
7836;BME280;3963;42.658;23.298;2023-10-19T03:24:59;45194.06;;;-144.44;100.00
7836;BME280;3963;42.658;23.298;2023-10-19T03:27:37;45243.47;;;-144.44;100.00
7836;BME280;3963;42.658;23.298;2023-10-19T03:30:04;45223.72;;;-144.44;100.00
7836;BME280;3963;42.658;23.298;2023-10-19T03:32:33;45217.78;;;-144.44;100.00
7836;BME280;3963;42.658;23.298;2023-10-19T03:35:00;45178.25;;;-144.44;100.00
7836;BME280;3963;42.658;23.298;2023-10-19T03:37:31;45166.41;;;-144.44;100.00
7836;BME280;3963;42.658;23.298;2023-10-19T03:40:00;45113.03;;;-144.44;100.00
7836;BME280;3963;42.658;23.298;2023-10-19T03:42:31;45146.63;;;-144.44;100.00
7836;BME280;3963;42.658;23.298;2023-10-19T03:44:58;45186.16;;;-144.44;100.00
7836;BME280;3963;42.658;23.298;2023-10-19T03:47:27;45211.84;;;-144.44;100.00
7836;BME280;3963;42.658;23.298;2023-10-19T03:50:00;45200.00;;;-144.44;100.00
7836;BME280;3963;42.658;23.298;2023-10-19T03:52:30;45178.25;;;-144.44;100.00
7836;BME280;3963;42.658;23.298;2023-10-19T03:54:57;45237.53;;;-144.44;100.00
7836;BME280;3963;42.658;23.298;2023-10-19T03:57:24;45269.16;;;-144.44;100.00
7836;BME280;3963;42.658;23.298;2023-10-19T03:59:55;45304.72;;;-144.44;100.00
7836;BME280;3963;42.658;23.298;2023-10-19T04:02:22;45294.84;;;-144.44;100.00
7836;BME280;3963;42.658;23.298;2023-10-19T04:04:50;45298.81;;;-144.44;100.00
7836;BME280;3963;42.658;23.298;2023-10-19T04:07:18;45334.38;;;-144.44;100.00
7836;BME280;3963;42.658;23.298;2023-10-19T04:09:49;45261.25;;;-144.44;100.00
7836;BME280;3963;42.658;23.298;2023-10-19T04:12:35;45225.69;;;-144.44;100.00
7836;BME280;3963;42.658;23.298;2023-10-19T04:15:05;45231.59;;;-144.44;100.00
7836;BME280;3963;42.658;23.298;2023-10-19T04:17:38;45200.00;;;-144.44;100.00
7836;BME280;3963;42.658;23.298;2023-10-19T04:20:06;45247.41;;;-144.44;100.00
7836;BME280;3963;42.658;23.298;2023-10-19T04:22:51;45156.50;;;-144.44;100.00
7836;BME280;3963;42.658;23.298;2023-10-19T04:25:20;45150.59;;;-144.44;100.00
7836;BME280;3963;42.658;23.298;2023-10-19T04:27:52;45148.59;;;-144.44;100.00
7836;BME280;3963;42.658;23.298;2023-10-19T04:30:19;45124.91;;;-144.44;100.00
7836;BME280;3963;42.658;23.298;2023-10-19T04:32:49;45166.41;;;-144.44;100.00
7836;BME280;3963;42.658;23.298;2023-10-19T04:35:16;45198.00;;;-144.44;100.00
7836;BME280;3963;42.658;23.298;2023-10-19T04:37:48;45172.31;;;-144.44;100.00
7836;BME280;3963;42.658;23.298;2023-10-19T04:40:15;45105.13;;;-144.44;100.00
7836;BME280;3963;42.658;23.298;2023-10-19T04:42:44;45097.22;;;-144.44;100.00
7836;BME280;3963;42.658;23.298;2023-10-19T04:45:11;45120.94;;;-144.44;100.00
7836;BME280;3963;42.658;23.298;2023-10-19T04:47:39;45130.81;;;-144.44;100.00
7836;BME280;3963;42.658;23.298;2023-10-19T04:50:07;45118.97;;;-144.44;100.00
7836;BME280;3963;42.658;23.298;2023-10-19T04:52:36;45194.06;;;-144.44;100.00
7836;BME280;3963;42.658;23.298;2023-10-19T04:55:04;45205.91;;;-144.44;100.00
7836;BME280;3963;42.658;23.298;2023-10-19T04:57:31;45227.66;;;-144.44;100.00
7836;BME280;3963;42.658;23.298;2023-10-19T04:59:59;45281.00;;;-144.44;100.00
7836;BME280;3963;42.658;23.298;2023-10-19T05:02:26;45324.50;;;-144.44;100.00
7836;BME280;3963;42.658;23.298;2023-10-19T05:04:53;45354.13;;;-144.44;100.00
7836;BME280;3963;42.658;23.298;2023-10-19T05:07:20;45318.56;;;-144.44;100.00
7836;BME280;3963;42.658;23.298;2023-10-19T05:09:47;45316.59;;;-144.44;100.00
7836;BME280;3963;42.658;23.298;2023-10-19T05:12:14;45300.78;;;-144.44;100.00
7836;BME280;3963;42.658;23.298;2023-10-19T05:14:42;45294.84;;;-144.44;100.00
7836;BME280;3963;42.658;23.298;2023-10-19T05:17:10;45316.59;;;-144.44;100.00
7836;BME280;3963;42.658;23.298;2023-10-19T05:19:38;45330.44;;;-144.44;100.00
7836;BME280;3963;42.658;23.298;2023-10-19T05:22:06;45405.53;;;-144.44;100.00
7836;BME280;3963;42.658;23.298;2023-10-19T05:24:34;45401.56;;;-144.44;100.00
7836;BME280;3963;42.658;23.298;2023-10-19T05:27:01;45553.75;;;-144.44;100.00
7836;BME280;3963;42.658;23.298;2023-10-19T05:29:28;45737.56;;;-144.44;100.00
7836;BME280;3963;42.658;23.298;2023-10-19T05:31:54;45749.44;;;-144.44;100.00
7836;BME280;3963;42.658;23.298;2023-10-19T05:34:25;45781.06;;;-144.44;100.00
7836;BME280;3963;42.658;23.298;2023-10-19T05:36:54;45777.09;;;-144.44;100.00
7836;BME280;3963;42.658;23.298;2023-10-19T05:39:24;45783.03;;;-144.44;100.00
7836;BME280;3963;42.658;23.298;2023-10-19T05:41:53;45808.72;;;-144.44;100.00
7836;BME280;3963;42.658;23.298;2023-10-19T05:44:19;45836.41;;;-144.44;100.00
7836;BME280;3963;42.658;23.298;2023-10-19T05:46:46;45814.66;;;-144.44;100.00
7836;BME280;3963;42.658;23.298;2023-10-19T05:49:13;45804.78;;;-144.44;100.00
7836;BME280;3963;42.658;23.298;2023-10-19T05:51:43;45830.47;;;-144.44;100.00
7836;BME280;3963;42.658;23.298;2023-10-19T05:54:10;45852.22;;;-144.44;100.00
7836;BME280;3963;42.658;23.298;2023-10-19T05:56:37;45856.16;;;-144.44;100.00
7836;BME280;3963;42.658;23.298;2023-10-19T05:59:05;45798.84;;;-144.44;100.00
7836;BME280;3963;42.658;23.298;2023-10-19T06:01:32;45684.19;;;-144.44;100.00
7836;BME280;3963;42.658;23.298;2023-10-19T06:03:58;45658.50;;;-144.44;100.00
7836;BME280;3963;42.658;23.298;2023-10-19T06:06:25;45678.28;;;-144.44;100.00
7836;BME280;3963;42.658;23.298;2023-10-19T06:08:53;45613.03;;;-144.44;100.00
7836;BME280;3963;42.658;23.298;2023-10-19T06:11:20;45624.91;;;-144.44;100.00
7836;BME280;3963;42.658;23.298;2023-10-19T06:13:48;45595.25;;;-144.44;100.00
7836;BME280;3963;42.658;23.298;2023-10-19T06:16:15;45555.72;;;-144.44;100.00
7836;BME280;3963;42.658;23.298;2023-10-19T06:18:43;45532.00;;;-144.44;100.00
7836;BME280;3963;42.658;23.298;2023-10-19T06:21:09;45466.78;;;-144.44;100.00
7836;BME280;3963;42.658;23.298;2023-10-19T06:23:37;45399.59;;;-144.44;100.00
7836;BME280;3963;42.658;23.298;2023-10-19T06:26:10;45375.88;;;-144.44;100.00
7836;BME280;3963;42.658;23.298;2023-10-19T06:28:38;45318.56;;;-144.44;100.00
7836;BME280;3963;42.658;23.298;2023-10-19T06:31:06;45286.94;;;-144.44;100.00
7836;BME280;3963;42.658;23.298;2023-10-19T06:33:33;45265.22;;;-144.44;100.00
7836;BME280;3963;42.658;23.298;2023-10-19T06:36:01;45284.97;;;-144.44;100.00
7836;BME280;3963;42.658;23.298;2023-10-19T06:38:28;45275.09;;;-144.44;100.00
7836;BME280;3963;42.658;23.298;2023-10-19T06:40:56;45316.59;;;-144.44;100.00
7836;BME280;3963;42.658;23.298;2023-10-19T06:43:25;45243.47;;;-144.44;100.00
7836;BME280;3963;42.658;23.298;2023-10-19T06:45:56;45219.75;;;-144.44;100.00
7836;BME280;3963;42.658;23.298;2023-10-19T06:48:22;45221.72;;;-144.44;100.00
7836;BME280;3963;42.658;23.298;2023-10-19T06:50:49;45200.00;;;-144.44;100.00
7836;BME280;3963;42.658;23.298;2023-10-19T06:53:16;45162.44;;;-144.44;100.00
7836;BME280;3963;42.658;23.298;2023-10-19T06:55:42;45109.09;;;-144.44;100.00
7836;BME280;3963;42.658;23.298;2023-10-19T06:58:09;45067.59;;;-144.44;100.00
7836;BME280;3963;42.658;23.298;2023-10-19T07:00:39;44996.44;;;-144.44;100.00
7836;BME280;3963;42.658;23.298;2023-10-19T07:03:07;45006.31;;;-144.44;100.00
7836;BME280;3963;42.658;23.298;2023-10-19T07:05:35;45041.91;;;-144.44;100.00
7836;BME280;3963;42.658;23.298;2023-10-19T07:08:01;44978.66;;;-144.44;100.00
7836;BME280;3963;42.658;23.298;2023-10-19T07:10:32;44956.91;;;-144.44;100.00
7836;BME280;3963;42.658;23.298;2023-10-19T07:13:00;44954.94;;;-144.44;100.00
7836;BME280;3963;42.658;23.298;2023-10-19T07:15:27;44962.84;;;-144.44;100.00
7836;BME280;3963;42.658;23.298;2023-10-19T07:17:56;44941.13;;;-144.44;100.00
7836;BME280;3963;42.658;23.298;2023-10-19T07:20:24;44923.31;;;-144.44;100.00
7836;BME280;3963;42.658;23.298;2023-10-19T07:22:54;44923.31;;;-144.44;100.00
7836;BME280;3963;42.658;23.298;2023-10-19T07:25:22;44960.88;;;-144.44;100.00
7836;BME280;3963;42.658;23.298;2023-10-19T07:27:51;44956.91;;;-144.44;100.00
7836;BME280;3963;42.658;23.298;2023-10-19T07:30:18;44960.88;;;-144.44;100.00
7836;BME280;3963;42.658;23.298;2023-10-19T07:32:48;44927.28;;;-144.44;100.00
7836;BME280;3963;42.658;23.298;2023-10-19T07:35:21;44921.34;;;-144.44;100.00
7836;BME280;3963;42.658;23.298;2023-10-19T07:37:51;44917.41;;;-144.44;100.00
7836;BME280;3963;42.658;23.298;2023-10-19T07:40:18;44911.47;;;-144.44;100.00
7836;BME280;3963;42.658;23.298;2023-10-19T07:42:45;44901.59;;;-144.44;100.00
7836;BME280;3963;42.658;23.298;2023-10-19T07:45:12;44897.63;;;-144.44;100.00
7836;BME280;3963;42.658;23.298;2023-10-19T07:47:39;44873.94;;;-144.44;100.00
7836;BME280;3963;42.658;23.298;2023-10-19T07:50:07;44897.63;;;-144.44;100.00
7836;BME280;3963;42.658;23.298;2023-10-19T07:52:39;44893.69;;;-144.44;100.00
7836;BME280;3963;42.658;23.298;2023-10-19T07:55:06;44903.56;;;-144.44;100.00
7836;BME280;3963;42.658;23.298;2023-10-19T07:57:33;44907.53;;;-144.44;100.00
7836;BME280;3963;42.658;23.298;2023-10-19T08:00:01;44903.56;;;-144.44;100.00
7836;BME280;3963;42.658;23.298;2023-10-19T08:02:29;44913.44;;;-144.44;100.00
7836;BME280;3963;42.658;23.298;2023-10-19T08:04:56;44911.47;;;-144.44;100.00
7836;BME280;3963;42.658;23.298;2023-10-19T08:07:23;44897.63;;;-144.44;100.00
7836;BME280;3963;42.658;23.298;2023-10-19T08:09:53;44899.63;;;-144.44;100.00
7836;BME280;3963;42.658;23.298;2023-10-19T08:12:20;44907.53;;;-144.44;84.27
7836;BME280;3963;42.658;23.298;2023-10-19T08:14:48;44913.44;;;-144.44;80.55
7836;BME280;3963;42.658;23.298;2023-10-19T08:17:14;44923.31;;;-144.44;75.42
7836;BME280;3963;42.658;23.298;2023-10-19T08:19:42;44949.00;;;-144.44;72.26
7836;BME280;3963;42.658;23.298;2023-10-19T08:22:08;44954.94;;;-144.44;69.46
7836;BME280;3963;42.658;23.298;2023-10-19T08:24:36;44956.91;;;-144.44;65.19
7836;BME280;3963;42.658;23.298;2023-10-19T08:27:04;44962.84;;;-144.44;62.59
7836;BME280;3963;42.658;23.298;2023-10-19T08:29:31;44984.59;;;-144.44;61.12
7836;BME280;3963;42.658;23.298;2023-10-19T08:32:01;44994.47;;;-144.44;58.64
7836;BME280;3963;42.658;23.298;2023-10-19T08:34:28;45028.06;;;-144.44;55.65
7836;BME280;3963;42.658;23.298;2023-10-19T08:36:55;45022.13;;;-144.44;53.14
7836;BME280;3963;42.658;23.298;2023-10-19T08:39:22;45026.09;;;-144.44;50.42
7836;BME280;3963;42.658;23.298;2023-10-19T08:41:50;45006.31;;;-144.44;51.92
7836;BME280;3963;42.658;23.298;2023-10-19T08:44:22;45008.31;;;-144.44;51.52
7836;BME280;3963;42.658;23.298;2023-10-19T08:46:49;45032.00;;;-144.44;49.05
7836;BME280;3963;42.658;23.298;2023-10-19T08:49:17;45039.91;;;-144.44;48.11
7836;BME280;3963;42.658;23.298;2023-10-19T08:51:46;45030.03;;;-144.44;49.29
7836;BME280;3963;42.658;23.298;2023-10-19T08:54:13;45012.25;;;-144.44;50.79
7836;BME280;3963;42.658;23.298;2023-10-19T08:56:41;45035.97;;;-144.44;50.91
7836;BME280;3963;42.658;23.298;2023-10-19T08:59:08;45055.72;;;-144.44;48.20
7836;BME280;3963;42.658;23.298;2023-10-19T09:01:37;45061.66;;;-144.44;47.06
7836;BME280;3963;42.658;23.298;2023-10-19T09:04:05;45071.53;;;-144.44;44.77
7836;BME280;3963;42.658;23.298;2023-10-19T09:06:34;45107.09;;;-144.44;43.38
7836;BME280;3963;42.658;23.298;2023-10-19T09:09:07;45115.00;;;-144.44;41.69
7836;BME280;3963;42.658;23.298;2023-10-19T09:11:35;45113.03;;;-144.44;40.75
7836;BME280;3963;42.658;23.298;2023-10-19T09:14:02;45099.19;;;-144.44;40.19
7836;BME280;3963;42.658;23.298;2023-10-19T09:16:31;45113.03;;;-144.44;39.96
7836;BME280;3963;42.658;23.298;2023-10-19T09:19:00;45107.09;;;-144.44;39.67
7836;BME280;3963;42.658;23.298;2023-10-19T09:21:27;45097.22;;;-144.44;40.91
7836;BME280;3963;42.658;23.298;2023-10-19T09:23:56;45077.47;;;-144.44;43.64
7836;BME280;3963;42.658;23.298;2023-10-19T09:26:24;45055.72;;;-144.44;46.42
7836;BME280;3963;42.658;23.298;2023-10-19T09:28:52;45049.81;;;-144.44;49.11
7836;BME280;3963;42.658;23.298;2023-10-19T09:31:19;45026.09;;;-144.44;50.38
7836;BME280;3963;42.658;23.298;2023-10-19T09:33:47;45030.03;;;-144.44;52.37
7836;BME280;3963;42.658;23.298;2023-10-19T09:36:16;45026.09;;;-144.44;53.34
7836;BME280;3963;42.658;23.298;2023-10-19T09:38:45;45030.03;;;-144.44;54.03
7836;BME280;3963;42.658;23.298;2023-10-19T09:41:15;45000.41;;;-144.44;54.50
7836;BME280;3963;42.658;23.298;2023-10-19T09:43:44;45002.38;;;-144.44;55.79
7836;BME280;3963;42.658;23.298;2023-10-19T09:46:12;44994.47;;;-144.44;55.72
7836;BME280;3963;42.658;23.298;2023-10-19T09:48:43;44990.50;;;-144.44;56.13
7836;BME280;3963;42.658;23.298;2023-10-19T09:51:13;44980.63;;;-144.44;56.05
7836;BME280;3963;42.658;23.298;2023-10-19T09:53:45;44996.44;;;-144.44;57.42
7836;BME280;3963;42.658;23.298;2023-10-19T09:56:18;44990.50;;;-144.44;56.77
7836;BME280;3963;42.658;23.298;2023-10-19T09:58:49;45002.38;;;-144.44;55.00
7836;BME280;3963;42.658;23.298;2023-10-19T10:01:18;45002.38;;;-144.44;54.24
7836;BME280;3963;42.658;23.298;2023-10-19T10:03:48;44996.44;;;-144.44;54.25
7836;BME280;3963;42.658;23.298;2023-10-19T10:06:17;45002.38;;;-144.44;54.06
7836;BME280;3963;42.658;23.298;2023-10-19T10:08:54;44996.44;;;-144.44;54.87
7836;BME280;3963;42.658;23.298;2023-10-19T10:11:23;45002.38;;;-144.44;55.88
7836;BME280;3963;42.658;23.298;2023-10-19T10:13:52;45010.28;;;-144.44;54.84
7836;BME280;3963;42.658;23.298;2023-10-19T10:16:21;44998.41;;;-144.44;53.78
7836;BME280;3963;42.658;23.298;2023-10-19T10:18:50;45032.00;;;-144.44;49.90
7836;BME280;3963;42.658;23.298;2023-10-19T10:21:19;45045.84;;;-144.44;46.06
7836;BME280;3963;42.658;23.298;2023-10-19T10:23:48;45115.00;;;-144.44;42.30
7836;BME280;3963;42.658;23.298;2023-10-19T10:26:18;45136.75;;;-144.44;40.32
7836;BME280;3963;42.658;23.298;2023-10-19T10:28:48;45148.59;;;-144.44;38.39
7836;BME280;3963;42.658;23.298;2023-10-19T10:31:20;45201.97;;;-144.44;37.13
7836;BME280;3963;42.658;23.298;2023-10-19T10:33:49;45203.94;;;-144.44;36.70
7836;BME280;3963;42.658;23.298;2023-10-19T10:36:17;45239.50;;;-144.44;35.80
7836;BME280;3963;42.658;23.298;2023-10-19T10:38:45;45182.19;;;-144.44;36.29
7836;BME280;3963;42.658;23.298;2023-10-19T10:41:20;45198.00;;;-144.44;35.84
7836;BME280;3963;42.658;23.298;2023-10-19T10:43:49;45227.66;;;-144.44;35.25
7836;BME280;3963;42.658;23.298;2023-10-19T10:46:18;45259.28;;;-144.44;34.40
7836;BME280;3963;42.658;23.298;2023-10-19T10:48:45;45221.72;;;-144.44;34.70
7836;BME280;3963;42.658;23.298;2023-10-19T10:51:17;45235.56;;;-144.44;34.61
7836;BME280;3963;42.658;23.298;2023-10-19T10:53:46;45261.25;;;-144.44;34.70
7836;BME280;3963;42.658;23.298;2023-10-19T10:56:13;45273.13;;;-144.44;33.71
7836;BME280;3963;42.658;23.298;2023-10-19T10:58:42;45271.13;;;-144.44;34.14
7836;BME280;3963;42.658;23.298;2023-10-19T11:01:09;45312.63;;;-144.44;33.45
7836;BME280;3963;42.658;23.298;2023-10-19T11:03:36;45302.75;;;-144.44;33.34
7836;BME280;3963;42.658;23.298;2023-10-19T11:06:04;45281.00;;;-144.44;33.58
7836;BME280;3963;42.658;23.298;2023-10-19T11:08:34;45275.09;;;-144.44;33.73
7836;BME280;3963;42.658;23.298;2023-10-19T11:11:06;45283.00;;;-144.44;33.39
7836;BME280;3963;42.658;23.298;2023-10-19T11:13:33;45233.59;;;-144.44;33.57
7836;BME280;3963;42.658;23.298;2023-10-19T11:16:03;45263.22;;;-144.44;34.27
7836;BME280;3963;42.658;23.298;2023-10-19T11:18:33;45267.19;;;-144.44;34.57
7836;BME280;3963;42.658;23.298;2023-10-19T11:21:01;45231.59;;;-144.44;34.90
7836;BME280;3963;42.658;23.298;2023-10-19T11:23:41;45221.72;;;-144.44;35.67
7836;BME280;3963;42.658;23.298;2023-10-19T11:26:09;45200.00;;;-144.44;37.13
7836;BME280;3963;42.658;23.298;2023-10-19T11:28:37;45186.16;;;-144.44;37.41
7836;BME280;3963;42.658;23.298;2023-10-19T11:31:15;45178.25;;;-144.44;38.58
7836;BME280;3963;42.658;23.298;2023-10-19T11:33:43;45158.50;;;-144.44;39.16
7836;BME280;3963;42.658;23.298;2023-10-19T11:36:10;45150.59;;;-144.44;39.70
7836;BME280;3963;42.658;23.298;2023-10-19T11:38:40;45148.59;;;-144.44;40.38
7836;BME280;3963;42.658;23.298;2023-10-19T11:41:06;45118.97;;;-144.44;41.21
7836;BME280;3963;42.658;23.298;2023-10-19T11:43:34;45132.78;;;-144.44;41.76
7836;BME280;3963;42.658;23.298;2023-10-19T11:46:01;45117.00;;;-144.44;42.13
7836;BME280;3963;42.658;23.298;2023-10-19T11:48:32;45124.91;;;-144.44;42.64
7836;BME280;3963;42.658;23.298;2023-10-19T11:50:59;45140.69;;;-144.44;42.60
7836;BME280;3963;42.658;23.298;2023-10-19T11:53:30;45107.09;;;-144.44;42.83
7836;BME280;3963;42.658;23.298;2023-10-19T11:55:59;45128.84;;;-144.44;43.08
7836;BME280;3963;42.658;23.298;2023-10-19T11:58:26;45109.09;;;-144.44;43.86
7836;BME280;3963;42.658;23.298;2023-10-19T12:00:52;45085.38;;;-144.44;44.23
7836;BME280;3963;42.658;23.298;2023-10-19T12:03:20;45124.91;;;-144.44;45.12
7836;BME280;3963;42.658;23.298;2023-10-19T12:05:48;45081.41;;;-144.44;45.18
7836;BME280;3963;42.658;23.298;2023-10-19T12:08:15;45113.03;;;-144.44;45.76
7836;BME280;3963;42.658;23.298;2023-10-19T12:10:42;45085.38;;;-144.44;46.00
7836;BME280;3963;42.658;23.298;2023-10-19T12:13:09;45103.16;;;-144.44;45.99
7836;BME280;3963;42.658;23.298;2023-10-19T12:15:36;45077.47;;;-144.44;46.26
7836;BME280;3963;42.658;23.298;2023-10-19T12:18:03;45095.25;;;-144.44;45.90
7836;BME280;3963;42.658;23.298;2023-10-19T12:20:31;45103.16;;;-144.44;46.69
7836;BME280;3963;42.658;23.298;2023-10-19T12:22:59;45067.59;;;-144.44;47.04
7836;BME280;3963;42.658;23.298;2023-10-19T12:25:26;45071.53;;;-144.44;47.14
7836;BME280;3963;42.658;23.298;2023-10-19T12:27:57;45091.28;;;-144.44;47.50
7836;BME280;3963;42.658;23.298;2023-10-19T12:30:24;45099.19;;;-144.44;48.10
7836;BME280;3963;42.658;23.298;2023-10-19T12:32:53;45101.19;;;-144.44;47.81
7836;BME280;3963;42.658;23.298;2023-10-19T12:35:20;45103.16;;;-144.44;47.93
7836;BME280;3963;42.658;23.298;2023-10-19T12:37:54;45095.25;;;-144.44;47.88
7836;BME280;3963;42.658;23.298;2023-10-19T12:40:22;45095.25;;;-144.44;48.41
7836;BME280;3963;42.658;23.298;2023-10-19T12:42:56;45069.56;;;-144.44;48.51
7836;BME280;3963;42.658;23.298;2023-10-19T12:45:24;45063.63;;;-144.44;48.36
7836;BME280;3963;42.658;23.298;2023-10-19T12:47:51;45095.25;;;-144.44;48.78
7836;BME280;3963;42.658;23.298;2023-10-19T12:50:20;45071.53;;;-144.44;48.36
7836;BME280;3963;42.658;23.298;2023-10-19T12:52:49;45059.69;;;-144.44;48.11